Time;durP1;ratioP1;P1;durP2;ratioP2;P2;SDS_P1;SDS_P2;PMS_P1;PMS_P2;Temp;Humidity;BMP_temperature;BMP_pressure;BME280_temperature;BME280_humidity;BME280_pressure;Samples;Min_cycle;Max_cycle;Signal;HPM_P1;HPM_P2
2021/09/22 00:00:22;;;;;;;6.95;2.97;;;;;;;22.66;64.16;102732.28;5046986;28;20122;-64
2021/09/22 00:02:49;;;;;;;4.82;2.40;;;;;;;22.66;63.90;102735.78;5024001;28;20069;-64
2021/09/22 00:05:15;;;;;;;5.32;2.30;;;;;;;22.66;64.03;102737.63;5049056;28;20040;-64
2021/09/22 00:07:41;;;;;;;4.35;2.53;;;;;;;22.65;63.83;102736.78;5048280;28;20045;-64
2021/09/22 00:10:10;;;;;;;5.25;2.88;;;;;;;22.66;64.07;102735.78;5030489;28;20389;-64
2021/09/22 00:12:36;;;;;;;4.63;2.10;;;;;;;22.66;64.16;102734.94;5048862;28;20029;-64
2021/09/22 00:15:05;;;;;;;5.57;2.65;;;;;;;22.65;63.79;102731.44;5031290;28;20450;-64
2021/09/22 00:17:30;;;;;;;5.15;2.45;;;;;;;22.66;63.93;102730.44;5030863;28;20029;-65
2021/09/22 00:19:56;;;;;;;4.55;2.20;;;;;;;22.66;63.90;102724.25;5049331;28;20484;-64
2021/09/22 00:22:23;;;;;;;4.97;2.20;;;;;;;22.66;63.73;102733.09;5048652;28;20458;-64
2021/09/22 00:24:49;;;;;;;6.72;2.42;;;;;;;22.67;63.83;102736.63;5048896;28;20033;-64
2021/09/22 00:27:14;;;;;;;5.22;2.70;;;;;;;22.66;64.03;102721.56;5048778;28;20476;-64
2021/09/22 00:29:40;;;;;;;4.03;2.10;;;;;;;22.66;63.82;102732.28;5048036;28;20443;-64
2021/09/22 00:32:05;;;;;;;4.35;2.25;;;;;;;22.66;63.76;102741.13;5047935;28;20043;-64
2021/09/22 00:34:31;;;;;;;5.68;2.17;;;;;;;22.65;63.83;102739.47;5031257;28;20044;-64
2021/09/22 00:36:56;;;;;;;4.70;2.13;;;;;;;22.66;63.78;102740.31;5048112;28;20065;-64
2021/09/22 00:39:22;;;;;;;4.93;2.28;;;;;;;22.66;64.00;102741.13;5048849;28;20041;-64
2021/09/22 00:41:47;;;;;;;4.50;2.40;;;;;;;22.66;63.95;102737.63;5048781;28;20036;-64
2021/09/22 00:44:13;;;;;;;4.43;2.33;;;;;;;22.65;64.08;102734.13;5048820;28;20057;-64
2021/09/22 00:46:38;;;;;;;4.03;2.45;;;;;;;22.66;64.10;102737.63;5029777;28;20468;-64
2021/09/22 00:49:04;;;;;;;3.42;2.15;;;;;;;22.66;64.20;102737.63;5031379;28;20400;-64
2021/09/22 00:51:29;;;;;;;5.10;2.20;;;;;;;22.66;63.96;102741.13;5047798;28;20069;-64
2021/09/22 00:53:55;;;;;;;4.22;2.38;;;;;;;22.65;64.25;102736.78;5048387;28;20116;-64
2021/09/22 00:56:21;;;;;;;3.63;1.90;;;;;;;22.66;64.04;102741.13;5014123;28;20432;-64
2021/09/22 00:58:47;;;;;;;4.65;2.08;;;;;;;22.67;64.12;102739.28;5048376;28;20104;-64
2021/09/22 01:01:12;;;;;;;4.25;2.20;;;;;;;22.65;64.26;102742.16;5030279;28;20094;-64
2021/09/22 01:03:38;;;;;;;3.53;1.98;;;;;;;22.66;64.14;102732.28;5016918;28;20337;-64
2021/09/22 01:06:04;;;;;;;4.55;2.00;;;;;;;22.66;64.22;102734.94;5052415;28;20041;-64
2021/09/22 01:08:31;;;;;;;3.17;2.00;;;;;;;22.66;63.90;102735.78;5025208;28;20084;-64
2021/09/22 01:10:57;;;;;;;4.25;1.77;;;;;;;22.66;64.34;102742.97;5042057;28;20103;-64
2021/09/22 01:13:23;;;;;;;4.85;2.05;;;;;;;22.66;64.22;102749.16;5051946;28;20037;-64
2021/09/22 01:15:49;;;;;;;3.50;1.88;;;;;;;22.67;64.17;102733.94;5052810;28;20112;-64
2021/09/22 01:18:21;;;;;;;2.80;1.70;;;;;;;22.66;64.06;102733.09;5026320;28;20033;-64
2021/09/22 01:20:50;;;;;;;3.58;1.80;;;;;;;22.66;64.28;102727.75;5013973;28;20088;-64
2021/09/22 01:23:16;;;;;;;3.28;1.80;;;;;;;22.64;64.09;102716.41;5013982;28;20047;-64
2021/09/22 01:25:45;;;;;;;3.40;2.10;;;;;;;22.67;64.06;102712.53;5027840;28;20033;-64
2021/09/22 01:28:12;;;;;;;4.30;2.10;;;;;;;22.66;64.45;102714.38;5032782;28;20465;-64
2021/09/22 01:30:38;;;;;;;4.43;1.90;;;;;;;22.66;64.20;102713.53;5032729;28;20128;-64
2021/09/22 01:33:07;;;;;;;3.83;1.83;;;;;;;22.66;64.29;102711.72;5032651;28;20548;-64
2021/09/22 01:35:41;;;;;;;5.57;2.40;;;;;;;22.64;64.22;102707.53;5032890;28;20770;-64
2021/09/22 01:38:12;;;;;;;4.10;1.95;;;;;;;22.65;64.54;102704.69;5032389;28;20091;-64
2021/09/22 01:40:37;;;;;;;4.10;2.10;;;;;;;22.66;64.32;102697.50;5032726;28;20661;-64
2021/09/22 01:43:04;;;;;;;3.55;1.90;;;;;;;22.66;64.37;102698.34;5033115;28;20041;-64
2021/09/22 01:45:30;;;;;;;6.00;2.03;;;;;;;22.66;64.35;102692.97;5015399;28;20045;-64
2021/09/22 01:47:55;;;;;;;3.22;1.83;;;;;;;22.67;64.21;102696.50;5032306;28;20029;-64
2021/09/22 01:50:21;;;;;;;7.55;2.03;;;;;;;22.66;64.28;102679.59;5032659;28;20088;-64
2021/09/22 01:52:49;;;;;;;4.53;1.90;;;;;;;22.65;64.18;102688.63;5031851;28;20120;-64
2021/09/22 01:55:21;;;;;;;4.03;2.08;;;;;;;22.64;64.16;102676.28;5032439;28;20115;-64
2021/09/22 01:57:48;;;;;;;3.40;1.92;;;;;;;22.65;64.06;102672.59;5032022;28;20112;-64
2021/09/22 02:00:14;;;;;;;3.25;1.85;;;;;;;22.65;64.16;102677.94;4997933;28;20128;-64
2021/09/22 02:02:40;;;;;;;3.20;2.03;;;;;;;22.65;63.99;102671.75;5031598;28;20628;-64
2021/09/22 02:05:05;;;;;;;4.03;2.15;;;;;;;22.65;64.02;102666.41;5032285;28;20224;-64
2021/09/22 02:07:32;;;;;;;3.35;2.10;;;;;;;22.64;64.03;102670.91;5031473;28;20033;-64
2021/09/22 02:09:59;;;;;;;3.40;2.05;;;;;;;22.65;63.84;102671.75;5032220;28;20099;-64
2021/09/22 02:12:28;;;;;;;3.08;1.90;;;;;;;22.64;63.99;102670.91;5032267;28;20783;-64
2021/09/22 02:14:54;;;;;;;3.35;2.08;;;;;;;22.64;63.59;102675.44;5031263;28;20044;-63
2021/09/22 02:17:21;;;;;;;3.45;1.90;;;;;;;22.65;64.10;102667.25;5031582;28;20072;-64
2021/09/22 02:19:47;;;;;;;2.97;1.85;;;;;;;22.65;63.99;102661.06;5031869;28;20120;-64
2021/09/22 02:22:13;;;;;;;3.22;2.08;;;;;;;22.64;63.92;102656.72;5031748;28;20034;-64
2021/09/22 02:24:42;;;;;;;4.32;1.85;;;;;;;22.64;63.87;102660.22;5032196;28;20033;-64
2021/09/22 02:27:10;;;;;;;3.88;1.92;;;;;;;22.65;64.09;102651.19;5031434;28;20041;-64
2021/09/22 02:29:35;;;;;;;3.90;2.08;;;;;;;22.64;63.73;102654.88;5032187;28;20484;-64
2021/09/22 02:32:01;;;;;;;4.55;2.08;;;;;;;22.64;63.76;102654.88;5030519;28;20045;-64
2021/09/22 02:34:26;;;;;;;3.05;1.90;;;;;;;22.65;63.86;102655.69;5031635;28;20438;-64
2021/09/22 02:36:52;;;;;;;2.92;2.05;;;;;;;22.65;63.69;102650.34;5031457;28;20708;-64
2021/09/22 02:39:17;;;;;;;3.10;1.65;;;;;;;22.64;63.64;102646.84;5031620;28;20041;-64
2021/09/22 02:41:43;;;;;;;3.85;2.30;;;;;;;22.64;63.74;102640.66;5013653;28;20048;-64
2021/09/22 02:44:08;;;;;;;3.95;2.10;;;;;;;22.64;63.91;102644.16;5013957;28;20461;-64
2021/09/22 02:46:34;;;;;;;4.00;2.40;;;;;;;22.64;63.58;102640.66;5031585;28;20059;-64
2021/09/22 02:49:00;;;;;;;4.22;2.00;;;;;;;22.63;63.69;102642.50;5031115;28;20045;-64
2021/09/22 02:51:25;;;;;;;2.90;1.80;;;;;;;22.64;63.54;102633.47;5031242;28;20029;-64
2021/09/22 02:53:51;;;;;;;3.28;1.95;;;;;;;22.64;63.39;102635.31;5012898;28;20029;-63
2021/09/22 02:56:16;;;;;;;2.65;1.60;;;;;;;22.64;63.62;102619.25;5031225;28;20033;-64
2021/09/22 02:58:42;;;;;;;2.97;1.80;;;;;;;22.63;63.67;102621.09;5031222;28;20124;-64
2021/09/22 03:01:07;;;;;;;2.47;1.90;;;;;;;22.63;63.65;102617.59;5009292;28;20692;-64
2021/09/22 03:03:33;;;;;;;3.50;1.90;;;;;;;22.63;63.36;102617.59;5013591;28;20068;-64
2021/09/22 03:05:58;;;;;;;3.55;2.10;;;;;;;22.63;63.46;102621.09;5030859;28;20473;-64
2021/09/22 03:08:24;;;;;;;4.03;2.15;;;;;;;22.63;63.31;102615.75;5020886;28;20651;-64
2021/09/22 03:10:49;;;;;;;3.28;1.98;;;;;;;22.63;63.26;102618.44;5032296;28;20045;-64
2021/09/22 03:13:15;;;;;;;3.05;1.98;;;;;;;22.63;63.17;102617.59;5050804;28;20120;-64
2021/09/22 03:15:41;;;;;;;3.45;2.17;;;;;;;22.63;63.10;102609.56;5033095;28;20472;-64
2021/09/22 03:18:06;;;;;;;3.63;1.67;;;;;;;22.61;63.34;102612.41;5050344;28;20063;-64
2021/09/22 03:20:32;;;;;;;2.55;1.50;;;;;;;22.62;62.90;102614.09;5051069;28;20102;-64
2021/09/22 03:22:57;;;;;;;2.63;1.88;;;;;;;22.62;62.91;102613.25;5050577;28;20061;-64
2021/09/22 03:25:23;;;;;;;3.83;1.70;;;;;;;22.62;63.04;102619.44;5050130;28;20064;-64
2021/09/22 03:27:48;;;;;;;2.70;1.92;;;;;;;22.62;63.33;102614.09;5050119;28;20037;-64
2021/09/22 03:30:14;;;;;;;2.45;1.58;;;;;;;22.62;63.04;102614.09;5050287;28;20132;-64
2021/09/22 03:32:39;;;;;;;2.42;1.65;;;;;;;22.62;63.26;102606.06;5050255;28;20120;-64
2021/09/22 03:35:05;;;;;;;2.75;1.70;;;;;;;22.61;62.76;102607.06;5050141;28;20045;-64
2021/09/22 03:37:31;;;;;;;2.72;1.75;;;;;;;22.62;62.96;102607.91;5050146;28;20068;-64
2021/09/22 03:39:57;;;;;;;4.82;1.98;;;;;;;22.62;62.68;102605.22;5050340;28;20057;-64
2021/09/22 03:42:22;;;;;;;3.72;2.00;;;;;;;22.62;62.96;102597.22;5050353;28;20036;-64
2021/09/22 03:44:48;;;;;;;2.38;1.67;;;;;;;22.61;62.99;102601.72;5050238;28;20440;-64
2021/09/22 03:47:13;;;;;;;3.88;1.90;;;;;;;22.61;62.92;102598.22;5049666;28;20404;-64
2021/09/22 03:49:39;;;;;;;3.72;1.60;;;;;;;22.62;63.05;102594.53;5049946;28;20056;-64
2021/09/22 03:52:04;;;;;;;4.03;1.88;;;;;;;22.61;62.99;102593.69;5031479;28;20499;-64
2021/09/22 03:54:30;;;;;;;4.07;2.00;;;;;;;22.61;62.76;102587.50;5050069;28;20430;-64
2021/09/22 03:56:55;;;;;;;2.28;1.70;;;;;;;22.61;62.86;102591.03;5050155;28;20037;-64
2021/09/22 03:59:21;;;;;;;3.70;1.90;;;;;;;22.62;62.73;102599.88;5049985;28;20036;-64
2021/09/22 04:01:46;;;;;;;2.70;1.92;;;;;;;22.61;62.72;102588.34;5035299;28;20531;-64
2021/09/22 04:04:12;;;;;;;3.10;2.00;;;;;;;22.61;62.71;102584.84;5012272;28;20132;-64
2021/09/22 04:06:37;;;;;;;2.60;1.70;;;;;;;22.60;62.80;102578.66;5030134;28;20040;-64
2021/09/22 04:09:03;;;;;;;3.45;1.50;;;;;;;22.61;62.69;102582.16;5049352;28;20048;-64
2021/09/22 04:11:29;;;;;;;4.93;1.98;;;;;;;22.60;63.19;102581.34;5049583;28;20045;-64
2021/09/22 04:13:55;;;;;;;3.08;1.60;;;;;;;22.61;62.74;102585.69;5049445;28;20111;-64
2021/09/22 04:16:20;;;;;;;2.42;1.70;;;;;;;22.60;62.93;102589.34;5031898;28;20037;-64
2021/09/22 04:18:46;;;;;;;2.75;1.80;;;;;;;22.61;62.72;102595.53;5031916;28;20037;-64
2021/09/22 04:21:11;;;;;;;2.70;1.80;;;;;;;22.60;62.77;102589.34;5049907;28;20037;-64
2021/09/22 04:23:37;;;;;;;2.97;1.70;;;;;;;22.61;62.68;102591.03;5031409;28;20037;-64
2021/09/22 04:26:02;;;;;;;3.08;1.40;;;;;;;22.61;62.82;102588.34;5031454;28;20143;-64
2021/09/22 04:28:28;;;;;;;3.15;1.70;;;;;;;22.60;62.64;102581.34;5048923;28;20495;-64
2021/09/22 04:30:53;;;;;;;3.03;1.90;;;;;;;22.60;62.76;102581.34;5048794;28;20044;-64
2021/09/22 04:33:19;;;;;;;2.80;1.42;;;;;;;22.60;62.90;102584.00;5049667;28;20552;-64
2021/09/22 04:35:44;;;;;;;2.60;1.67;;;;;;;22.61;62.65;102587.50;5032021;28;20032;-64
2021/09/22 04:38:10;;;;;;;2.85;1.90;;;;;;;22.60;62.67;102588.53;5047900;28;20029;-64
2021/09/22 04:40:35;;;;;;;4.78;1.65;;;;;;;22.59;62.59;102582.34;5049742;28;20124;-64
2021/09/22 04:43:02;;;;;;;2.90;1.80;;;;;;;22.59;62.74;102584.19;5031351;28;20043;-64
2021/09/22 04:45:28;;;;;;;2.40;1.60;;;;;;;22.60;62.54;102591.19;5027819;28;20661;-64
2021/09/22 04:47:55;;;;;;;4.72;1.80;;;;;;;22.60;62.45;102599.22;5028760;28;20030;-65
2021/09/22 04:50:21;;;;;;;2.40;1.58;;;;;;;22.60;62.28;102604.56;5034478;28;20171;-64
2021/09/22 04:52:47;;;;;;;2.97;1.73;;;;;;;22.60;62.39;102604.56;5049049;28;20469;-64
2021/09/22 04:55:13;;;;;;;3.03;1.73;;;;;;;22.60;62.76;102608.09;5031399;28;20040;-64
2021/09/22 04:57:39;;;;;;;2.30;1.70;;;;;;;22.59;62.52;102598.41;5049076;28;20094;-64
2021/09/22 05:00:06;;;;;;;3.38;1.75;;;;;;;22.59;62.52;102603.75;5048458;28;20048;-64
2021/09/22 05:02:31;;;;;;;2.92;1.45;;;;;;;22.60;62.46;102597.38;5048894;28;20041;-64
2021/09/22 05:04:57;;;;;;;2.83;1.73;;;;;;;22.60;62.39;102588.53;5027751;28;20087;-64
2021/09/22 05:07:23;;;;;;;2.42;1.50;;;;;;;22.58;62.25;102591.38;5027835;28;20045;-64
2021/09/22 05:09:48;;;;;;;2.13;1.45;;;;;;;22.59;62.34;102585.00;5048719;28;20053;-64
2021/09/22 05:12:14;;;;;;;2.47;1.70;;;;;;;22.58;62.32;102586.03;5048484;28;20060;-64
2021/09/22 05:14:39;;;;;;;3.13;1.60;;;;;;;22.58;62.28;102580.69;5031564;28;20040;-64
2021/09/22 05:17:05;;;;;;;2.80;1.52;;;;;;;22.58;62.25;102574.50;5048737;28;20044;-64
2021/09/22 05:19:31;;;;;;;2.53;1.50;;;;;;;22.59;62.46;102584.19;5031560;28;20115;-64
2021/09/22 05:21:56;;;;;;;2.17;1.60;;;;;;;22.58;62.24;102575.31;5030757;28;20048;-64
2021/09/22 05:24:22;;;;;;;2.95;1.80;;;;;;;22.59;62.63;102579.66;5049101;28;20457;-64
2021/09/22 05:26:48;;;;;;;3.03;1.58;;;;;;;22.58;62.24;102575.31;5049213;28;20532;-64
2021/09/22 05:29:13;;;;;;;3.22;1.75;;;;;;;22.58;62.48;102580.69;5048683;28;20036;-64
2021/09/22 05:31:39;;;;;;;2.10;1.52;;;;;;;22.58;62.15;102580.69;5048353;28;20041;-64
2021/09/22 05:34:04;;;;;;;4.50;1.70;;;;;;;22.58;62.30;102572.66;5048887;28;20063;-64
2021/09/22 05:36:30;;;;;;;2.85;1.63;;;;;;;22.58;62.17;102574.50;5049203;28;20045;-64
2021/09/22 05:38:55;;;;;;;1.98;1.50;;;;;;;22.57;62.14;102567.47;5048355;28;20063;-64
2021/09/22 05:41:21;;;;;;;2.55;1.25;;;;;;;22.58;62.00;102574.50;5030712;28;20826;-64
2021/09/22 05:43:46;;;;;;;2.58;1.50;;;;;;;22.57;62.17;102568.31;5049148;28;20029;-64
2021/09/22 05:46:12;;;;;;;3.00;1.50;;;;;;;22.58;62.40;102569.16;5048236;28;20044;-64
2021/09/22 05:48:38;;;;;;;2.08;1.52;;;;;;;22.58;62.16;102558.44;5049553;28;20464;-64
2021/09/22 05:51:04;;;;;;;1.73;1.30;;;;;;;22.57;62.07;102562.13;5033583;28;20035;-64
2021/09/22 05:53:30;;;;;;;3.20;1.40;;;;;;;22.57;62.02;102562.97;5033843;28;20045;-63
2021/09/22 05:55:56;;;;;;;2.50;1.45;;;;;;;22.57;62.44;102554.94;5039444;28;20033;-62
2021/09/22 05:58:21;;;;;;;3.00;1.33;;;;;;;22.57;62.41;102556.78;5014565;28;20048;-64
2021/09/22 06:00:47;;;;;;;4.88;1.50;;;;;;;22.57;62.37;102552.25;5020139;28;20039;-63
2021/09/22 06:03:13;;;;;;;5.60;1.50;;;;;;;22.58;62.51;102564.63;5031542;28;20061;-64
2021/09/22 06:05:41;;;;;;;3.20;1.73;;;;;;;22.58;62.40;102553.94;5015525;28;20064;-64
2021/09/22 06:08:08;;;;;;;2.53;1.38;;;;;;;22.60;62.77;102564.44;5045648;28;20136;-64
2021/09/22 06:10:34;;;;;;;5.72;1.63;;;;;;;22.59;62.27;102568.97;5032168;28;20049;-64
2021/09/22 06:13:01;;;;;;;5.68;1.70;;;;;;;22.59;62.54;102558.28;5036193;28;20041;-64
2021/09/22 06:15:26;;;;;;;2.45;1.30;;;;;;;22.60;62.65;102553.75;5038674;28;20045;-64
2021/09/22 06:17:52;;;;;;;2.60;1.48;;;;;;;22.60;62.65;102549.25;5051907;28;20144;-64
2021/09/22 06:20:18;;;;;;;3.67;1.45;;;;;;;22.60;62.56;102551.06;5045272;28;20648;-63
2021/09/22 06:22:43;;;;;;;4.70;1.40;;;;;;;22.60;62.60;102551.06;5024190;28;20060;-64
2021/09/22 06:25:10;;;;;;;3.40;1.45;;;;;;;22.59;62.60;102552.91;5038156;28;20030;-64
2021/09/22 06:27:35;;;;;;;3.45;1.48;;;;;;;22.60;62.37;102557.25;5031734;28;20130;-64
2021/09/22 06:30:01;;;;;;;1.70;1.13;;;;;;;22.61;62.60;102552.75;5030650;28;20061;-64
2021/09/22 06:32:27;;;;;;;1.90;1.20;;;;;;;22.62;62.33;102549.06;5031421;28;20385;-64
2021/09/22 06:34:52;;;;;;;2.50;1.40;;;;;;;22.61;62.63;102555.41;5032099;28;20116;-64
2021/09/22 06:37:18;;;;;;;4.20;1.63;;;;;;;22.62;62.54;102559.75;5031018;28;20037;-64
2021/09/22 06:39:43;;;;;;;3.65;1.50;;;;;;;22.62;62.54;102555.25;5045410;28;20039;-64
2021/09/22 06:42:09;;;;;;;3.08;1.23;;;;;;;22.62;62.69;102555.25;5031886;28;20511;-64
2021/09/22 06:44:34;;;;;;;3.83;1.67;;;;;;;22.63;62.48;102558.75;5032915;28;20081;-64
2021/09/22 06:47:00;;;;;;;2.20;1.20;;;;;;;22.63;62.61;102548.03;5038255;28;20479;-64
2021/09/22 06:49:26;;;;;;;1.80;1.15;;;;;;;22.61;62.37;102540.19;5040236;28;20067;-64
2021/09/22 06:51:51;;;;;;;6.13;1.35;;;;;;;22.62;62.33;102544.53;5039077;28;20078;-71
2021/09/22 06:54:17;;;;;;;3.25;1.50;;;;;;;22.61;62.07;102532.19;5017730;28;20037;-63
2021/09/22 06:56:42;;;;;;;2.42;1.20;;;;;;;22.62;62.56;102547.22;5042888;28;20036;-64
2021/09/22 06:59:08;;;;;;;5.38;1.67;;;;;;;22.61;62.30;102540.19;5026374;28;20437;-64
2021/09/22 07:01:33;;;;;;;5.07;1.50;;;;;;;22.62;62.41;102544.53;5031416;28;20033;-64
2021/09/22 07:03:59;;;;;;;2.55;1.30;;;;;;;22.61;62.61;102544.72;5027412;28;20158;-64
2021/09/22 07:06:24;;;;;;;3.38;1.38;;;;;;;22.62;62.29;102538.34;5004684;28;20837;-64
2021/09/22 07:08:50;;;;;;;1.80;1.20;;;;;;;22.61;62.63;102539.38;5009830;28;20048;-64
2021/09/22 07:11:15;;;;;;;2.67;1.30;;;;;;;22.61;62.40;102540.19;5047427;28;20037;-65
2021/09/22 07:13:41;;;;;;;4.22;1.60;;;;;;;22.61;62.50;102536.69;5046400;28;20036;-61
2021/09/22 07:16:10;;;;;;;4.30;1.30;;;;;;;22.61;62.61;102540.19;5017031;28;20539;-63
2021/09/22 07:18:36;;;;;;;6.20;1.55;;;;;;;22.62;62.59;102541.03;5028664;28;20045;-63
2021/09/22 07:21:01;;;;;;;5.88;1.50;;;;;;;22.61;62.44;102548.22;5009027;28;20033;-62
2021/09/22 07:23:29;;;;;;;5.00;1.50;;;;;;;22.61;62.35;102542.03;5025033;28;20034;-63
2021/09/22 07:25:54;;;;;;;4.38;1.20;;;;;;;22.61;62.05;102550.91;5009122;28;20826;-63
2021/09/22 07:28:20;;;;;;;6.85;1.42;;;;;;;22.61;61.78;102542.03;5009546;28;20030;-63
2021/09/22 07:30:46;;;;;;;3.65;1.30;;;;;;;22.60;61.64;102540.38;5028945;28;20422;-63
2021/09/22 07:33:12;;;;;;;5.82;1.70;;;;;;;22.58;60.78;102540.56;5037235;28;20041;-63
2021/09/22 07:35:37;;;;;;;4.18;1.70;;;;;;;22.56;60.21;102539.88;5012365;28;20037;-63
2021/09/22 07:38:03;;;;;;;5.78;1.77;;;;;;;22.54;59.48;102533.88;5044964;28;20037;-63
2021/09/22 07:40:29;;;;;;;7.13;1.92;;;;;;;22.52;59.26;102548.44;5029896;28;20123;-62
2021/09/22 07:42:56;;;;;;;8.93;2.15;;;;;;;22.50;58.34;102550.44;5034214;28;20764;-63
2021/09/22 07:45:22;;;;;;;8.80;2.13;;;;;;;22.46;58.01;102541.94;5034630;28;20133;-63
2021/09/22 07:47:47;;;;;;;7.55;2.35;;;;;;;22.43;57.52;102544.97;5037932;28;20174;-63
2021/09/22 07:50:12;;;;;;;7.85;2.05;;;;;;;22.40;57.31;102539.94;5013775;28;20044;-63
2021/09/22 07:52:39;;;;;;;5.78;2.20;;;;;;;22.39;57.16;102548.97;5029895;28;20140;-63
2021/09/22 07:55:07;;;;;;;7.40;1.98;;;;;;;22.36;56.65;102546.66;5037380;28;20033;-63
2021/09/22 07:57:33;;;;;;;6.97;1.88;;;;;;;22.34;56.09;102551.34;5029043;28;20041;-63
2021/09/22 07:59:59;;;;;;;6.95;1.65;;;;;;;22.29;55.79;102549.19;5029691;28;20052;-63
2021/09/22 08:02:24;;;;;;;7.10;1.90;;;;;;;22.26;55.53;102548.72;5028753;28;20040;-63
2021/09/22 08:04:50;;;;;;;7.00;1.90;;;;;;;22.25;55.44;102544.34;5030481;28;20132;-63
2021/09/22 08:07:17;;;;;;;4.80;1.50;;;;;;;22.24;55.18;102548.88;5011736;28;20029;-63
2021/09/22 08:09:42;;;;;;;4.88;1.50;;;;;;;22.22;55.17;102542.03;5030656;28;20141;-64
2021/09/22 08:12:08;;;;;;;4.35;1.48;;;;;;;22.20;55.06;102541.38;5029776;28;20128;-65
2021/09/22 08:14:35;;;;;;;6.07;1.65;;;;;;;22.19;54.68;102537.03;5012583;28;20452;-64
2021/09/22 08:17:00;;;;;;;4.10;1.30;;;;;;;22.18;54.58;102540.72;5029579;28;20528;-64
2021/09/22 08:19:27;;;;;;;6.38;1.70;;;;;;;22.17;54.16;102537.19;5029837;28;20030;-64
2021/09/22 08:21:53;;;;;;;4.50;1.50;;;;;;;22.17;54.49;102542.56;5029752;28;20128;-65
2021/09/22 08:24:18;;;;;;;4.25;1.23;;;;;;;22.18;53.94;102538.03;5029983;28;20151;-65
2021/09/22 08:26:44;;;;;;;3.28;1.10;;;;;;;22.17;54.02;102541.72;5029689;28;20478;-64
2021/09/22 08:29:09;;;;;;;3.75;1.38;;;;;;;22.16;53.89;102535.53;5029952;28;20026;-65
2021/09/22 08:31:35;;;;;;;3.13;1.30;;;;;;;22.16;53.80;102529.38;5011737;28;20056;-64
2021/09/22 08:34:00;;;;;;;4.45;1.10;;;;;;;22.16;53.69;102532.88;5030235;28;20096;-65
2021/09/22 08:36:26;;;;;;;4.95;1.25;;;;;;;22.16;53.69;102524.00;5029608;28;20037;-65
2021/09/22 08:38:51;;;;;;;3.75;1.40;;;;;;;22.15;53.63;102514.34;5029651;28;20030;-64
2021/09/22 08:41:17;;;;;;;9.38;1.63;;;;;;;22.15;53.69;102520.50;5029526;28;20772;-65
2021/09/22 08:43:43;;;;;;;2.58;0.98;;;;;;;22.15;53.54;102511.66;5029711;28;20111;-65
2021/09/22 08:46:09;;;;;;;3.20;1.10;;;;;;;22.15;53.35;102514.34;5029485;28;20491;-64
2021/09/22 08:48:35;;;;;;;3.67;1.30;;;;;;;22.13;53.40;102522.53;5029676;28;20034;-64
2021/09/22 08:51:01;;;;;;;2.75;0.90;;;;;;;22.14;53.30;102512.66;5029571;28;20378;-64
2021/09/22 08:53:26;;;;;;;6.57;1.20;;;;;;;22.14;53.06;102512.66;5029047;28;20045;-65
2021/09/22 08:55:53;;;;;;;2.65;1.00;;;;;;;22.14;53.04;102518.00;5029836;28;20128;-63
2021/09/22 08:58:19;;;;;;;2.95;1.40;;;;;;;22.14;53.05;102500.13;5029413;28;20564;-63
2021/09/22 09:00:46;;;;;;;2.72;1.20;;;;;;;22.14;52.91;102501.97;5035088;28;20033;-63
2021/09/22 09:03:39;;;;;;;4.30;1.00;;;;;;;22.10;52.90;102507.66;5031301;28;20039;-64
2021/09/22 09:06:24;;;;;;;2.77;0.90;;;;;;;22.09;52.71;102499.81;5049685;28;20133;-63
2021/09/22 09:08:52;;;;;;;;;;;;;;;22.01;53.04;102506.00;5031421;28;20052;-63
2021/09/22 09:11:31;;;;;;;4.50;1.40;;;;;;;22.07;52.94;102504.50;5048853;28;19912;-63
2021/09/22 09:13:59;;;;;;;3.72;1.20;;;;;;;22.10;52.89;102494.31;5049461;28;20021;-64
2021/09/22 09:16:37;;;;;;;4.72;1.20;;;;;;;22.08;52.57;102496.28;5048831;28;20067;-64
2021/09/22 09:19:11;;;;;;;5.28;1.00;;;;;;;22.10;52.23;102496.97;5049404;28;20044;-64
2021/09/22 09:22:15;;;;;;;2.50;1.13;;;;;;;22.06;52.81;102498.31;5049137;28;20036;-64
2021/09/22 09:24:46;;;;;;;3.10;0.95;;;;;;;22.13;52.60;102484.28;4954983;28;20062;-64
2021/09/22 09:27:23;;;;;;;4.65;1.10;;;;;;;22.14;52.37;102489.44;4971657;28;20031;-64
2021/09/22 09:29:54;;;;;;;3.13;1.08;;;;;;;22.14;52.79;102491.28;5018572;28;20052;-64
2021/09/22 09:32:28;;;;;;;2.42;1.10;;;;;;;22.14;52.35;102501.97;5052625;28;20033;-64
2021/09/22 09:35:17;;;;;;;2.72;1.15;;;;;;;22.12;52.09;102499.47;5053683;28;20086;-64
2021/09/22 09:37:44;;;;;;;5.90;2.25;;;;;;;22.16;52.21;102494.63;5052447;28;20109;-64
2021/09/22 09:40:32;;;;;;;5.72;1.17;;;;;;;22.13;52.54;102489.63;5053117;28;20028;-64
2021/09/22 09:43:04;;;;;;;5.32;1.20;;;;;;;22.16;52.65;102483.91;5052992;28;20033;-64
2021/09/22 09:45:41;;;;;;;3.20;1.20;;;;;;;22.16;52.41;102489.28;5052822;28;20099;-64
2021/09/22 09:48:16;;;;;;;3.08;1.33;;;;;;;22.17;52.32;102496.28;5052532;28;20029;-64
2021/09/22 09:50:45;;;;;;;3.17;0.90;;;;;;;22.19;52.30;102483.56;5052809;28;20542;-64
2021/09/22 09:53:24;;;;;;;2.70;1.20;;;;;;;22.16;52.13;102489.28;5052217;28;20047;-64
2021/09/22 09:55:50;;;;;;;5.38;1.15;;;;;;;22.20;52.26;102496.75;5052596;28;20526;-65
2021/09/22 09:58:15;;;;;;;2.70;0.82;;;;;;;22.20;52.24;102491.41;5052597;28;20041;-64
2021/09/22 10:00:41;;;;;;;6.30;1.20;;;;;;;22.20;52.09;102477.22;5047392;28;20083;-64
2021/09/22 10:03:11;;;;;;;2.75;1.10;;;;;;;22.19;51.86;102471.03;5032059;28;20108;-64
2021/09/22 10:05:37;;;;;;;3.03;1.10;;;;;;;22.20;52.13;102477.22;5032359;28;20044;-64
2021/09/22 10:08:03;;;;;;;4.43;1.10;;;;;;;22.20;52.15;102467.34;5014059;28;20049;-64
2021/09/22 10:10:29;;;;;;;3.63;1.40;;;;;;;22.21;52.34;102465.50;5032018;28;20081;-64
2021/09/22 10:12:55;;;;;;;4.75;1.10;;;;;;;22.21;52.28;102465.50;5032025;28;20030;-64
2021/09/22 10:15:27;;;;;;;4.55;1.00;;;;;;;22.21;52.37;102470.84;5014626;28;20083;-64
2021/09/22 10:17:54;;;;;;;3.08;1.00;;;;;;;22.20;52.06;102463.84;5032049;28;20030;-64
2021/09/22 10:20:20;;;;;;;3.30;1.10;;;;;;;22.20;52.04;102461.19;5032055;28;20038;-64
2021/09/22 10:22:46;;;;;;;2.75;0.85;;;;;;;22.20;52.15;102458.50;5031951;28;20124;-64
2021/09/22 10:25:13;;;;;;;2.47;0.80;;;;;;;22.20;52.07;102455.84;5032280;28;20036;-64
2021/09/22 10:27:39;;;;;;;4.00;1.00;;;;;;;22.20;51.96;102462.00;5031909;28;20034;-64
2021/09/22 10:30:07;;;;;;;2.28;0.95;;;;;;;22.20;52.17;102458.50;5032024;28;20048;-64
2021/09/22 10:32:51;;;;;;;4.47;0.90;;;;;;;22.15;51.95;102444.84;5031366;28;20037;-64
2021/09/22 10:35:25;;;;;;;4.13;1.10;;;;;;;22.17;51.94;102449.00;5030770;28;20029;-64
2021/09/22 10:37:56;;;;;;;3.50;0.98;;;;;;;22.20;51.92;102451.31;5013809;28;20362;-64
2021/09/22 10:40:33;;;;;;;3.30;1.20;;;;;;;22.18;51.94;102449.81;5032044;28;20046;-64
2021/09/22 10:43:14;;;;;;;2.75;0.88;;;;;;;22.18;52.09;102439.13;5031714;28;20037;-64
2021/09/22 10:45:40;;;;;;;3.38;1.25;;;;;;;22.20;52.28;102437.94;5031836;28;20152;-64
2021/09/22 10:48:16;;;;;;;6.97;1.23;;;;;;;22.19;52.11;102430.09;5031266;28;20037;-64
2021/09/22 10:50:41;;;;;;;3.22;0.85;;;;;;;22.24;52.19;102435.75;5013815;28;20025;-64
2021/09/22 10:53:32;;;;;;;3.15;1.20;;;;;;;22.18;51.96;102428.44;5031056;28;20048;-64
2021/09/22 10:56:10;;;;;;;1.83;0.80;;;;;;;22.21;52.11;102422.75;5031984;28;20037;-64
2021/09/22 10:58:52;;;;;;;3.25;1.00;;;;;;;22.23;51.94;102426.91;5031540;28;20476;-64
2021/09/22 11:01:32;;;;;;;4.50;1.17;;;;;;;22.20;52.18;102427.25;5041332;28;20035;-64
2021/09/22 11:03:58;;;;;;;4.15;1.20;;;;;;;22.25;51.90;102421.38;5051608;28;20041;-64
2021/09/22 11:06:42;;;;;;;3.95;1.10;;;;;;;22.20;52.03;102421.91;5051204;28;20042;-64
2021/09/22 11:09:10;;;;;;;4.47;1.00;;;;;;;22.24;52.29;102417.88;5050866;28;20053;-64
2021/09/22 11:11:58;;;;;;;3.25;0.95;;;;;;;22.21;52.06;102420.06;5051072;28;20041;-64
2021/09/22 11:14:27;;;;;;;2.60;0.95;;;;;;;22.24;51.95;102422.38;5051221;28;20086;-64
2021/09/22 11:16:56;;;;;;;6.55;1.25;;;;;;;22.24;52.07;102415.19;5050595;28;20499;-64
2021/09/22 11:19:22;;;;;;;4.43;1.10;;;;;;;22.25;52.21;102411.53;5051182;28;20056;-64
2021/09/22 11:21:49;;;;;;;2.92;0.90;;;;;;;22.26;51.94;102407.88;5050796;28;20060;-64
2021/09/22 11:24:16;;;;;;;2.90;1.20;;;;;;;22.25;51.87;102416.91;5050959;28;20037;-64